TKPN METAR and TAF | Updated Today

TKPN METAR

Vance W. Amory International Airport

Observation time: 28 min. ago

TKPN 291200Z 09013KT 9999 BKN018 28/24 Q1016

Need help? Read our tutorial on how to read METARs or read the parsed version below.

Vance W. Amory International Airport (TKPN) METAR

  • Weather conditions on Sun, 29 May 2022 12:00:00 +0000 (28 min. ago):
  • Present conditions: Dry
  • Clouds: Broken sky at 549 meters
  • Visibility: Greater than 10 km
  • Wind: 90 degrees at 13 knots
  • Temperature: 28 celsius
  • Dew point: 24 celsius
  • Pressure: 1016 millibars
  • Remarks: None


Useful to know...

TKPN TAF

Vance W. Amory International Airport

TAF TKPN 281700Z 2818/2918 09012KT 9999 SCT019 BKN038
Observation time: 19:28 hr. ago
Need help? Read our tutorial on how to read TAFs or read the parsed version below.

Parsed version of TAF for Vance W. Amory International Airport (TKPN)

  • From 28 May at 18:00 UTC, to day 29 of the month at 18:00 UTC
  • Clouds: Scattered at 579 meters; broken sky at 1158 meters
  • Visibility: Greater than 10 km
  • Wind: 90 degrees at 12